< Typhoon 198407 1984 Season Typhoon 198409 >
Typhoon 198408 (FREDA)
General InformationTrack Information on Google MapsDetailed Wind InformationList of All Images || Disaster Info.ResourceGoogle EarthGE AnimationAtom FeedGeoJSON
Detalied Best Track (Time Zone = UTC)
Year Month Day Hour Lat. Long. Pressure (hPa) Wind (kt) Class Image Chart
1984 8 4 00 12.1 132.3 1004 0 2 Image Chart
1984 8 4 06 12.9 131.5 1003 0 2 Image Chart
1984 8 4 12 13.7 130.8 1003 0 2 Image Chart
1984 8 4 18 14.5 129.9 1002 0 2 Image Chart
1984 8 5 00 15.5 129.0 1002 0 2 Image Chart
1984 8 5 06 16.4 128.2 1000 0 2 Image Chart
1984 8 5 12 17.3 127.3 998 0 2 Image Chart
1984 8 5 18 18.3 126.6 998 0 2 Image Chart
1984 8 6 00 19.2 126.2 996 0 2 Image Chart
1984 8 6 06 20.1 125.6 992 45 3 Image Chart
1984 8 6 12 21.3 125.3 990 50 4 Image Chart
1984 8 6 18 22.8 124.7 985 50 4 Image Chart
1984 8 7 00 24.6 122.9 985 50 4 Image Chart
1984 8 7 06 25.2 121.3 985 50 4 Image Chart
1984 8 7 12 25.7 120.7 985 50 4 Image Chart
1984 8 7 18 26.6 120.1 985 50 4 Image Chart
1984 8 8 00 27.7 119.0 992 35 3 Image Chart
1984 8 8 06 29.0 117.3 994 0 2 Image Chart
1984 8 8 12 29.8 116.5 994 0 2 Image Chart
1984 8 8 18 31.0 115.3 996 0 2 Image Chart
1984 8 9 00 32.5 114.5 996 0 2 Image Chart
1984 8 9 06 33.5 115.0 996 0 2 Image Chart
1984 8 9 12 35.0 115.5 996 0 2 Image Chart
1984 8 9 18 37.0 116.5 996 0 2 Image Chart
1984 8 10 00 39.0 117.0 994 0 2 Image Chart
1984 8 10 06 41.0 119.0 994 0 2 Image Chart
1984 8 10 12 42.0 122.0 996 0 6 Image Chart
1984 8 10 18 43.0 125.0 996 0 6 Image Chart
1984 8 11 00 44.0 128.0 996 0 6 Image Chart
1984 8 11 06 45.0 133.0 996 0 6 Image Chart
1984 8 11 12 47.0 136.0 998 0 6 Image Chart
1984 8 11 18 47.0 142.0 996 0 6 Image Chart
1984 8 12 00 47.0 147.0 994 0 6 Image Chart
1984 8 12 06 47.0 150.0 992 0 6 Image Chart
1984 8 12 12 47.0 153.0 988 0 6 Image Chart
1984 8 12 18 48.0 156.0 988 0 6 Image Chart
1984 8 13 00 48.0 159.0 988 0 6 Image Chart
1984 8 13 06 48.0 161.0 988 0 6 Image Chart
1984 8 13 12 48.0 163.0 988 0 6 Image Chart
1984 8 13 18 47.0 164.0 992 0 6 Image Chart
1984 8 14 00 46.0 165.0 996 0 6 Image Chart
1984 8 14 06 45.0 166.0 996 0 6 Image Chart
1984 8 14 12 44.0 166.0 1000 0 6 Image Chart
1984 8 14 18 43.0 166.0 1002 0 6 Image Chart
1984 8 15 00 41.0 166.0 1004 0 6 Image Chart
1984 8 15 06 39.0 166.0 1004 0 6 Image Chart
1984 8 15 12 38.0 166.0 1004 0 6 Image Chart
1984 8 15 18 37.0 167.0 1004 0 6 Image Chart
1984 8 16 00 37.0 168.0 1004 0 6 Image Chart
1984 8 16 06 37.0 168.0 1006 0 6 Image Chart
1984 8 16 12 37.0 168.0 1006 0 6 Image Chart
1984 8 16 18 37.0 168.0 1006 0 6 Image Chart
1984 8 17 00 37.0 168.0 1006 0 6 Image Chart
1984 8 17 06 37.0 168.0 1008 0 6 Image Chart
1984 8 17 12 38.0 168.0 1010 0 6 Image Chart
1984 8 17 18 40.0 168.0 1010 0 6 Image Chart
1984 8 18 00 40.0 168.0 1012 0 6 Image Chart
1984 8 18 06 42.0 169.0 1008 0 6 Image Chart
1984 8 18 12 44.0 169.0 1008 0 6 Image Chart
1984 8 18 18 45.0 170.0 1006 0 6 Image Chart
1984 8 19 00 47.0 172.0 1000 0 6 Image Chart
1984 8 19 06 48.0 175.0 998 0 6 Image Chart
1984 8 19 12 49.0 177.0 996 0 6 Image Chart
1984 8 19 18 51.0 180.0 994 0 6 Image Chart
Japan Meteorological Agency Best Track Data | Correction Date : 1992-10-21
< Typhoon 198407 1984 Season Typhoon 198409 >

Help